createdAt,value
2018-07-03T00:01:38.430Z,37.70
2018-07-03T00:04:15.668Z,37.60
2018-07-03T00:07:17.591Z,37.70
2018-07-03T00:09:48.378Z,37.70
2018-07-03T00:12:19.272Z,37.80
2018-07-03T00:18:03.434Z,38.70
2018-07-03T00:20:33.872Z,37.60
2018-07-03T00:23:13.208Z,38.60
2018-07-03T00:25:47.156Z,38.10
2018-07-03T00:28:17.569Z,38.40
2018-07-03T00:30:47.936Z,38.20
2018-07-03T00:33:36.323Z,38.50
2018-07-03T00:36:06.631Z,38.80
2018-07-03T00:38:37.181Z,38.70
2018-07-03T00:41:07.795Z,38.60
2018-07-03T00:43:38.146Z,38.90
2018-07-03T00:46:08.393Z,39.10
2018-07-03T00:48:43.416Z,39.20
2018-07-03T00:51:17.481Z,38.70
2018-07-03T00:53:50.879Z,38.90
2018-07-03T00:56:21.051Z,38.80
2018-07-03T00:59:12.105Z,39.70
2018-07-03T01:01:42.740Z,39.80
2018-07-03T01:04:13.018Z,39.30
2018-07-03T01:06:43.690Z,39.80
2018-07-03T01:09:14.401Z,39.80
2018-07-03T01:11:52.081Z,40.00
2018-07-03T01:14:43.329Z,39.90
2018-07-03T01:17:13.557Z,39.30
2018-07-03T01:19:44.407Z,40.10
2018-07-03T01:22:39.861Z,40.10
2018-07-03T01:25:10.587Z,40.30
2018-07-03T01:27:41.988Z,40.20
2018-07-03T01:30:13.339Z,40.30
2018-07-03T01:32:43.758Z,40.30
2018-07-03T01:35:18.809Z,40.30
2018-07-03T01:37:57.318Z,39.90
2018-07-03T01:40:42.968Z,39.90
2018-07-03T01:45:58.803Z,40.60
2018-07-03T01:48:28.991Z,40.10
2018-07-03T01:50:59.095Z,40.50
2018-07-03T01:53:29.740Z,41.10
2018-07-03T01:55:59.888Z,40.40
2018-07-03T01:58:43.635Z,40.70
2018-07-03T02:03:59.742Z,40.50
2018-07-03T02:06:29.920Z,40.60
2018-07-03T02:09:00.633Z,40.70
2018-07-03T02:11:30.865Z,40.60
2018-07-03T02:14:15.892Z,41.00
2018-07-03T02:16:46.497Z,40.50
2018-07-03T02:19:16.935Z,40.60
2018-07-03T02:21:47.199Z,40.80
2018-07-03T02:24:35.348Z,40.70
2018-07-03T02:27:14.254Z,40.00
2018-07-03T02:29:45.042Z,40.00
2018-07-03T02:32:15.518Z,40.20
2018-07-03T02:34:45.794Z,40.60
2018-07-03T02:37:22.327Z,40.50
2018-07-03T02:39:52.935Z,40.70
2018-07-03T02:42:23.154Z,40.80
2018-07-03T02:44:55.851Z,40.80
2018-07-03T02:47:26.528Z,40.40
2018-07-03T02:49:56.920Z,40.40
2018-07-03T02:52:27.207Z,40.80
2018-07-03T02:54:57.277Z,40.90
2018-07-03T02:57:27.453Z,41.10
2018-07-03T02:59:57.876Z,41.00
2018-07-03T03:02:28.054Z,41.00
2018-07-03T03:04:58.171Z,41.20
2018-07-03T03:07:28.753Z,41.40
2018-07-03T03:09:58.921Z,40.80
2018-07-03T03:12:29.049Z,41.50
2018-07-03T03:15:14.512Z,41.40
2018-07-03T03:17:45.868Z,41.40
2018-07-03T03:20:44.816Z,41.10
2018-07-03T03:23:16.104Z,41.30
2018-07-03T03:29:21.627Z,41.50
2018-07-03T03:31:51.997Z,41.00
2018-07-03T03:34:22.126Z,41.20
2018-07-03T03:36:52.609Z,41.50
2018-07-03T03:39:22.819Z,41.20
2018-07-03T03:41:53.116Z,41.40
2018-07-03T03:44:23.569Z,41.50
2018-07-03T03:47:13.693Z,41.40
2018-07-03T03:50:07.060Z,40.90
2018-07-03T03:52:37.392Z,41.60
2018-07-03T03:55:16.184Z,41.70
2018-07-03T03:57:46.368Z,42.00
2018-07-03T04:00:16.726Z,42.00
2018-07-03T04:02:47.323Z,42.10
2018-07-03T04:08:04.234Z,42.50
2018-07-03T04:10:34.784Z,41.10
2018-07-03T04:13:11.254Z,43.00
2018-07-03T04:15:41.516Z,42.60
2018-07-03T04:18:11.707Z,42.70
2018-07-03T04:20:42.140Z,42.60
2018-07-03T04:25:55.166Z,42.90
2018-07-03T04:28:25.616Z,42.60
2018-07-03T04:30:55.873Z,43.00
2018-07-03T04:33:26.356Z,43.50
2018-07-03T04:35:56.607Z,43.30
2018-07-03T04:41:36.717Z,44.00
2018-07-03T04:44:06.845Z,43.80
2018-07-03T04:46:44.228Z,44.10
2018-07-03T04:49:32.633Z,44.30
2018-07-03T04:52:22.087Z,44.60
2018-07-03T04:55:10.370Z,44.50
2018-07-03T04:57:40.623Z,44.80
2018-07-03T05:00:10.861Z,44.80
2018-07-03T05:02:41.051Z,45.10
2018-07-03T05:05:11.308Z,44.60
2018-07-03T05:07:41.501Z,44.80
2018-07-03T05:19:31.492Z,44.70
2018-07-03T05:22:24.775Z,44.20
2018-07-03T05:24:55.259Z,44.10
2018-07-03T05:27:25.855Z,44.10
2018-07-03T05:29:56.527Z,44.10
2018-07-03T05:32:54.281Z,43.90
2018-07-03T05:46:11.756Z,43.50
2018-07-03T05:48:53.412Z,42.60
2018-07-03T05:51:23.744Z,42.60
2018-07-03T05:53:54.036Z,42.70
2018-07-03T05:56:28.436Z,42.70
2018-07-03T05:58:58.886Z,42.60
2018-07-03T06:01:29.524Z,42.30
2018-07-03T06:03:59.816Z,42.10
2018-07-03T06:06:30.058Z,42.00
2018-07-03T06:09:00.285Z,42.10
2018-07-03T06:11:30.607Z,42.00
2018-07-03T06:14:00.973Z,41.70
2018-07-03T06:16:31.312Z,41.40
2018-07-03T06:19:01.928Z,41.10
2018-07-03T06:21:32.593Z,41.00
2018-07-03T06:24:03.005Z,40.90
2018-07-03T06:26:36.457Z,40.90
2018-07-03T06:29:08.331Z,40.90
2018-07-03T06:31:39.471Z,40.70
2018-07-03T06:34:11.182Z,40.10
2018-07-03T06:36:41.483Z,40.30
2018-07-03T06:39:29.608Z,40.30
2018-07-03T06:42:07.388Z,40.20
2018-07-03T06:44:44.333Z,40.10
2018-07-03T06:47:15.398Z,39.90
2018-07-03T06:58:41.346Z,39.10
2018-07-03T07:07:36.519Z,38.90
2018-07-03T07:10:08.690Z,38.60
2018-07-03T07:12:41.796Z,38.30
2018-07-03T07:15:23.753Z,38.20
2018-07-03T07:17:54.339Z,38.20
2018-07-03T07:20:24.814Z,38.00
2018-07-03T07:22:55.060Z,37.90
2018-07-03T07:25:25.425Z,38.00
2018-07-03T07:27:55.705Z,37.70
2018-07-03T07:30:26.009Z,37.60
2018-07-03T07:32:56.358Z,37.50
2018-07-03T07:35:26.882Z,37.10
2018-07-03T07:37:57.963Z,37.00
2018-07-03T07:40:34.190Z,36.80
2018-07-03T07:53:00.108Z,36.20
2018-07-03T07:55:37.569Z,36.20
2018-07-03T07:58:07.859Z,36.10
2018-07-03T08:00:38.903Z,35.70
2018-07-03T08:03:09.175Z,35.70
2018-07-03T08:05:40.472Z,35.60
2018-07-03T08:08:10.780Z,35.50
2018-07-03T08:10:41.032Z,35.40
2018-07-03T08:13:11.376Z,35.10
2018-07-03T08:15:53.171Z,34.70
2018-07-03T08:18:30.244Z,35.10
2018-07-03T08:30:24.481Z,34.70
2018-07-03T08:39:40.458Z,34.00
2018-07-03T08:42:11.658Z,33.90
2018-07-03T08:44:48.865Z,33.50
2018-07-03T08:47:47.311Z,32.70
2018-07-03T08:50:47.976Z,33.10
2018-07-03T08:56:47.916Z,32.80
2018-07-03T08:59:24.324Z,32.10
2018-07-03T09:08:41.761Z,31.90
2018-07-03T09:18:20.288Z,31.40
2018-07-03T09:33:25.418Z,30.70
2018-07-03T09:35:58.881Z,30.60
2018-07-03T09:38:55.834Z,30.90
2018-07-03T09:46:56.846Z,30.70
2018-07-03T09:49:28.227Z,30.40
2018-07-03T09:58:03.799Z,29.90
2018-07-03T10:00:51.693Z,29.90
2018-07-03T10:12:54.167Z,29.60
2018-07-03T10:31:53.913Z,28.40
2018-07-03T10:34:24.189Z,28.00
2018-07-03T10:56:00.017Z,28.40
2018-07-03T11:01:34.575Z,27.90
2018-07-03T11:04:24.041Z,27.50
2018-07-03T11:06:54.397Z,27.50
2018-07-03T11:09:24.737Z,27.30
2018-07-03T11:11:56.021Z,25.60
2018-07-03T11:14:28.541Z,26.30
2018-07-03T11:16:58.899Z,27.00
2018-07-03T11:19:42.492Z,26.80
2018-07-03T11:22:13.317Z,26.80
2018-07-03T11:24:43.670Z,26.40
2018-07-03T12:11:07.944Z,29.20
2018-07-03T12:13:38.188Z,28.10
2018-07-03T12:16:08.423Z,28.00
